Time;durP1;ratioP1;P1;durP2;ratioP2;P2;SDS_P1;SDS_P2;PMS_P1;PMS_P2;Temp;Humidity;BMP_temperature;BMP_pressure;BME280_temperature;BME280_humidity;BME280_pressure;Samples;Min_cycle;Max_cycle;Signal;HPM_P1;HPM_P2
2023/09/02 00:00:05;;;;;;;10.90;5.50;;;;;;;18.09;68.27;101562.27;107365;1254;97723;-65
2023/09/02 00:02:59;;;;;;;14.10;5.70;;;;;;;18.08;68.46;101563.25;107433;1253;97717;-65
2023/09/02 00:05:28;;;;;;;17.10;5.80;;;;;;;18.08;68.35;101558.39;107339;1256;112282;-65
2023/09/02 00:07:56;;;;;;;16.90;5.10;;;;;;;18.07;68.42;101560.11;107369;1255;109222;-63
2023/09/02 00:10:24;;;;;;;23.40;5.70;;;;;;;18.06;69.05;101560.05;107315;1257;109610;-63
2023/09/02 00:12:52;;;;;;;9.90;5.40;;;;;;;18.03;69.08;101561.43;107444;1254;97957;-65
2023/09/02 00:15:20;;;;;;;10.60;5.00;;;;;;;18.04;69.16;101561.91;107354;1254;97832;-64
2023/09/02 00:17:49;;;;;;;12.30;4.80;;;;;;;18.03;69.27;101562.94;107321;1256;112237;-65
2023/09/02 00:20:18;;;;;;;14.30;5.20;;;;;;;18.02;69.45;101562.83;107355;1255;108871;-65
2023/09/02 00:22:46;;;;;;;10.50;4.60;;;;;;;17.99;69.67;101562.82;107292;1257;107807;-65
2023/09/02 00:25:15;;;;;;;10.00;4.50;;;;;;;17.96;69.38;101562.95;107361;1254;97736;-63
2023/09/02 00:27:43;;;;;;;10.80;4.20;;;;;;;17.96;69.27;101562.36;107336;1257;98464;-64
2023/09/02 00:30:12;;;;;;;17.30;5.30;;;;;;;17.96;69.04;101562.23;107355;1256;112006;-64
2023/09/02 00:32:40;;;;;;;10.30;4.90;;;;;;;17.95;69.20;101563.59;107360;1257;110022;-65
2023/09/02 00:35:10;;;;;;;10.40;5.20;;;;;;;17.96;69.09;101560.77;107404;1254;108268;-62
2023/09/02 00:37:39;;;;;;;13.30;4.80;;;;;;;17.97;68.87;101557.08;107391;1256;97886;-65
2023/09/02 00:40:14;;;;;;;24.80;6.60;;;;;;;17.95;68.91;101559.73;107399;1256;97711;-66
2023/09/02 00:42:45;;;;;;;16.10;5.30;;;;;;;17.93;68.79;101563.09;107331;1254;111142;-64
2023/09/02 00:45:15;;;;;;;17.50;5.60;;;;;;;17.90;68.84;101565.73;107289;1254;108544;-64
2023/09/02 00:47:45;;;;;;;16.70;5.60;;;;;;;17.86;69.01;101570.50;107327;1260;107459;-64
2023/09/02 00:50:13;;;;;;;13.40;6.00;;;;;;;17.81;68.89;101570.13;107351;1257;97868;-64
2023/09/02 00:52:41;;;;;;;14.80;5.50;;;;;;;17.77;68.94;101568.95;107391;1256;97735;-66
2023/09/02 00:55:10;;;;;;;12.30;5.40;;;;;;;17.72;68.97;101570.59;107376;1256;111915;-65
2023/09/02 00:57:39;;;;;;;10.90;5.00;;;;;;;17.67;69.03;101569.98;107367;1257;109614;-65
2023/09/02 01:00:09;;;;;;;13.50;5.40;;;;;;;17.63;69.24;101571.70;107383;1257;108611;-64
2023/09/02 01:02:37;;;;;;;17.40;5.40;;;;;;;17.60;69.33;101573.98;107360;1257;97899;-64
2023/09/02 01:05:07;;;;;;;20.90;6.20;;;;;;;17.57;69.18;101573.45;107389;1254;97822;-65
2023/09/02 01:07:36;;;;;;;9.30;5.40;;;;;;;17.53;69.33;101574.35;107322;1257;111606;-64
2023/09/02 01:10:05;;;;;;;12.00;5.10;;;;;;;17.50;69.52;101569.20;107321;1254;108725;-63
2023/09/02 01:12:33;;;;;;;15.50;5.20;;;;;;;17.47;69.67;101570.59;107328;1257;108944;-65
2023/09/02 01:15:03;;;;;;;21.70;5.20;;;;;;;17.45;69.87;101572.13;107347;1254;97854;-65
2023/09/02 01:17:31;;;;;;;10.90;4.80;;;;;;;17.43;70.19;101571.73;107346;1256;97749;-64
2023/09/02 01:20:05;;;;;;;13.20;5.10;;;;;;;17.36;70.84;101573.21;107374;1257;112235;-65
2023/09/02 01:22:40;;;;;;;19.00;5.30;;;;;;;17.29;70.46;101572.65;107322;1257;109392;-64
2023/09/02 01:25:44;;;;;;;11.70;5.10;;;;;;;17.26;70.48;101575.16;107204;1254;108228;-64
2023/09/02 01:28:17;;;;;;;;;;;;;;;17.24;70.55;101572.64;107362;1256;97736;-65
2023/09/02 01:30:48;;;;;;;15.90;5.60;;;;;;;17.22;70.45;101575.27;107341;1258;97707;-66
2023/09/02 01:33:18;;;;;;;18.80;6.20;;;;;;;17.20;70.43;101575.90;107374;1257;110884;-65
2023/09/02 01:35:51;;;;;;;14.10;5.10;;;;;;;17.21;70.70;101575.16;107280;1257;109934;-63
2023/09/02 01:38:24;;;;;;;13.50;5.20;;;;;;;17.19;70.83;101576.05;107307;1256;107644;-65
2023/09/02 01:40:54;;;;;;;19.50;5.60;;;;;;;17.17;70.97;101574.33;107286;1258;97931;-65
2023/09/02 01:43:24;;;;;;;10.10;5.20;;;;;;;17.10;71.27;101577.54;107286;1254;99040;-64
2023/09/02 01:45:53;;;;;;;8.70;4.70;;;;;;;17.04;71.42;101581.09;107374;1257;111205;-66
2023/09/02 01:48:23;;;;;;;9.00;4.80;;;;;;;16.99;71.32;101581.95;107296;1257;110084;-65
2023/09/02 01:50:52;;;;;;;10.40;5.00;;;;;;;16.95;71.48;101581.81;107317;1254;108756;-65
2023/09/02 01:53:21;;;;;;;13.10;4.80;;;;;;;16.92;71.58;101579.38;107298;1256;98115;-64
2023/09/02 01:55:49;;;;;;;16.90;5.00;;;;;;;16.89;71.45;101580.70;107328;1257;98379;-65
2023/09/02 01:58:18;;;;;;;11.20;5.00;;;;;;;16.87;71.46;101581.46;107260;1256;110389;-64
2023/09/02 02:00:46;;;;;;;19.90;5.50;;;;;;;16.85;71.59;101579.71;107295;1256;108970;-64
2023/09/02 02:03:34;;;;;;;12.90;5.30;;;;;;;16.84;71.70;101579.40;107243;1254;108419;-65
2023/09/02 02:06:06;;;;;;;10.60;4.90;;;;;;;16.84;71.77;101577.43;107400;1257;97927;-65
2023/09/02 02:08:38;;;;;;;10.50;5.70;;;;;;;16.83;71.82;101576.80;107231;1256;98432;-65
2023/09/02 02:11:06;;;;;;;14.20;4.80;;;;;;;16.85;72.01;101580.21;107372;1254;111983;-65
2023/09/02 02:13:35;;;;;;;10.40;5.10;;;;;;;16.86;72.10;101580.29;107341;1257;109257;-64
2023/09/02 02:16:05;;;;;;;18.80;6.70;;;;;;;16.86;72.04;101584.27;107234;1254;107675;-62
2023/09/02 02:18:33;;;;;;;9.90;4.40;;;;;;;16.83;72.38;101582.58;107337;1256;97861;-64
2023/09/02 02:21:03;;;;;;;10.40;5.90;;;;;;;16.80;72.28;101587.17;107336;1257;98382;-66
2023/09/02 02:23:32;;;;;;;10.50;5.40;;;;;;;16.76;72.41;101591.35;107321;1258;112372;-66
2023/09/02 02:26:02;;;;;;;13.90;5.80;;;;;;;16.72;72.55;101590.03;107374;1257;109590;-64
2023/09/02 02:28:30;;;;;;;11.40;4.90;;;;;;;16.69;72.60;101589.15;107359;1257;106567;-65
2023/09/02 02:30:59;;;;;;;11.40;5.00;;;;;;;16.67;72.68;101584.83;107341;1257;97835;-64
2023/09/02 02:33:27;;;;;;;8.90;4.90;;;;;;;16.66;72.65;101583.52;107336;1257;98363;-64
2023/09/02 02:35:56;;;;;;;10.30;5.20;;;;;;;16.64;72.62;101583.67;107347;1257;112340;-64
2023/09/02 02:38:24;;;;;;;8.40;4.80;;;;;;;16.64;72.84;101583.70;107248;1254;109206;-65
2023/09/02 02:40:53;;;;;;;12.90;4.90;;;;;;;16.62;72.90;101579.89;107392;1257;107901;-65
2023/09/02 02:43:26;;;;;;;10.60;5.10;;;;;;;16.60;72.88;101579.52;107340;1257;97752;-65
2023/09/02 02:45:55;;;;;;;8.90;4.50;;;;;;;16.59;73.02;101579.08;107355;1257;97874;-64
2023/09/02 02:48:28;;;;;;;14.60;5.00;;;;;;;16.56;73.14;101576.55;107351;1254;111348;-65
2023/09/02 02:50:57;;;;;;;11.60;5.60;;;;;;;16.53;73.19;101577.36;107417;1254;108461;-64
2023/09/02 02:53:26;;;;;;;10.50;4.60;;;;;;;16.49;73.04;101578.80;107316;1256;108289;-65
2023/09/02 02:55:55;;;;;;;13.00;5.00;;;;;;;16.46;73.18;101576.66;107316;1256;97876;-64
2023/09/02 02:58:23;;;;;;;16.20;5.60;;;;;;;16.44;73.39;101583.51;107374;1257;97719;-66
2023/09/02 03:01:04;;;;;;;14.40;6.10;;;;;;;16.41;73.45;101582.48;107412;1254;110723;-63
2023/09/02 03:03:34;;;;;;;18.00;5.30;;;;;;;16.40;73.64;101585.81;107291;1254;109565;-65
2023/09/02 03:06:04;;;;;;;12.60;5.20;;;;;;;16.39;73.72;101579.14;107307;1254;107061;-66
2023/09/02 03:08:33;;;;;;;18.40;4.90;;;;;;;16.32;74.49;101581.20;107363;1258;97809;-65
2023/09/02 03:11:04;;;;;;;13.30;5.20;;;;;;;16.28;73.97;101580.36;107432;1254;97848;-65
2023/09/02 03:13:34;;;;;;;13.00;5.20;;;;;;;16.27;73.93;101583.36;107369;1256;111129;-65
2023/09/02 03:16:12;;;;;;;9.10;4.80;;;;;;;16.26;73.84;101582.03;107400;1257;110010;-65
2023/09/02 03:18:41;;;;;;;16.60;4.90;;;;;;;16.25;74.05;101580.90;107365;1257;108672;-65
2023/09/02 03:21:10;;;;;;;16.10;5.10;;;;;;;16.20;73.92;101581.70;107396;1254;97925;-64
2023/09/02 03:23:39;;;;;;;12.00;5.10;;;;;;;16.18;74.06;101582.86;107320;1254;98474;-66
2023/09/02 03:26:12;;;;;;;9.00;4.40;;;;;;;16.16;74.42;101584.08;107380;1256;111986;-65
2023/09/02 03:28:42;;;;;;;9.70;4.50;;;;;;;16.16;75.30;101586.33;107219;1257;108691;-65
2023/09/02 03:31:11;;;;;;;11.20;4.70;;;;;;;16.12;76.03;101587.61;107362;1254;106766;-66
2023/09/02 03:33:42;;;;;;;12.00;4.70;;;;;;;16.08;75.89;101586.49;107365;1257;98015;-65
2023/09/02 03:36:16;;;;;;;13.60;4.40;;;;;;;16.06;75.64;101580.59;107242;1256;98376;-64
2023/09/02 03:38:46;;;;;;;10.00;4.80;;;;;;;16.06;75.66;101580.59;107246;1254;112045;-65
2023/09/02 03:41:17;;;;;;;11.50;4.70;;;;;;;16.04;76.67;101577.83;107362;1254;112530;-66
2023/09/02 03:43:46;;;;;;;10.10;4.70;;;;;;;16.00;77.71;101575.59;107324;1259;106946;-66
2023/09/02 03:46:15;;;;;;;9.00;4.50;;;;;;;15.96;77.35;101577.56;107357;1257;97848;-63
2023/09/02 03:48:46;;;;;;;11.30;5.10;;;;;;;15.98;77.16;101582.08;107343;1257;97755;-66
2023/09/02 03:51:16;;;;;;;10.40;4.60;;;;;;;15.99;77.23;101585.48;107407;1254;111272;-65
2023/09/02 03:54:06;;;;;;;12.00;4.60;;;;;;;15.98;76.93;101584.47;107336;1257;110967;-65
2023/09/02 03:56:36;;;;;;;8.90;5.20;;;;;;;15.98;77.04;101588.95;107191;1254;108015;-65
2023/09/02 03:59:08;;;;;;;13.00;4.60;;;;;;;15.98;77.07;101587.90;107233;1257;97901;-65
2023/09/02 04:01:36;;;;;;;12.90;4.70;;;;;;;16.01;76.95;101583.23;107327;1257;98327;-65
2023/09/02 04:04:05;;;;;;;9.70;4.80;;;;;;;16.04;76.85;101587.49;107161;1257;113325;-65
2023/09/02 04:06:34;;;;;;;14.20;5.20;;;;;;;16.07;76.80;101589.16;107311;1257;109702;-65
2023/09/02 04:09:02;;;;;;;10.70;4.90;;;;;;;16.10;76.74;101593.56;107188;1257;107790;-64
2023/09/02 04:11:30;;;;;;;12.70;4.80;;;;;;;16.14;76.64;101594.66;107261;1258;97883;-64
2023/09/02 04:13:58;;;;;;;8.70;4.60;;;;;;;16.18;76.59;101599.98;107261;1257;99285;-65
2023/09/02 04:16:26;;;;;;;14.00;5.00;;;;;;;16.21;76.78;101603.16;107337;1258;110918;-66
2023/09/02 04:18:56;;;;;;;12.50;4.80;;;;;;;16.21;77.00;101608.58;107343;1256;108742;-65
2023/09/02 04:21:25;;;;;;;13.80;4.80;;;;;;;16.20;76.89;101607.75;107272;1260;108027;-65
2023/09/02 04:23:54;;;;;;;12.20;5.10;;;;;;;16.23;76.91;101611.14;107262;1256;97995;-65
2023/09/02 04:26:23;;;;;;;9.60;4.50;;;;;;;16.23;77.11;101607.80;107232;1257;98520;-66
2023/09/02 04:28:52;;;;;;;7.70;4.90;;;;;;;16.22;77.25;101613.55;107276;1256;111194;-65
2023/09/02 04:31:22;;;;;;;11.00;4.40;;;;;;;16.23;77.59;101612.54;107264;1257;110087;-66
2023/09/02 04:33:51;;;;;;;9.00;4.70;;;;;;;16.23;77.71;101613.76;107238;1256;106909;-64
2023/09/02 04:36:21;;;;;;;14.30;4.90;;;;;;;16.27;77.48;101612.30;107269;1256;97857;-65
2023/09/02 04:38:51;;;;;;;12.60;5.00;;;;;;;16.31;77.25;101614.50;107265;1256;97788;-65
2023/09/02 04:41:20;;;;;;;9.60;4.70;;;;;;;16.34;77.30;101618.22;107321;1257;111305;-65
2023/09/02 04:43:49;;;;;;;9.80;5.10;;;;;;;16.34;77.67;101611.84;107311;1259;109404;-65
2023/09/02 04:46:18;;;;;;;14.70;5.20;;;;;;;16.33;77.74;101609.96;107267;1255;107753;-63
2023/09/02 04:48:47;;;;;;;10.50;5.50;;;;;;;16.37;77.56;101612.58;107404;1257;97844;-64
2023/09/02 04:51:19;;;;;;;14.60;4.80;;;;;;;16.42;77.53;101608.30;107304;1257;97824;-64
2023/09/02 04:53:48;;;;;;;13.10;4.80;;;;;;;16.48;77.54;101607.71;107284;1257;111551;-64
2023/09/02 04:56:16;;;;;;;12.30;5.50;;;;;;;16.55;77.43;101611.54;107272;1257;109620;-64
2023/09/02 04:58:45;;;;;;;14.30;4.60;;;;;;;16.63;77.41;101615.27;107265;1257;107618;-65
2023/09/02 05:01:18;;;;;;;13.80;5.30;;;;;;;16.68;77.26;101619.09;107340;1254;97952;-65
2023/09/02 05:03:54;;;;;;;10.80;5.10;;;;;;;16.75;77.15;101618.61;107353;1257;97729;-63
2023/09/02 05:06:22;;;;;;;10.10;5.60;;;;;;;16.81;77.17;101620.73;107386;1254;112211;-66
2023/09/02 05:08:54;;;;;;;15.40;5.20;;;;;;;16.89;77.09;101621.02;107319;1257;109176;-65
2023/09/02 05:11:25;;;;;;;12.20;5.30;;;;;;;16.96;76.98;101623.23;107350;1254;108214;-65
2023/09/02 05:13:53;;;;;;;14.30;6.00;;;;;;;17.03;76.64;101621.40;107290;1257;97906;-64
2023/09/02 05:16:22;;;;;;;16.80;5.80;;;;;;;17.08;76.37;101621.21;107413;1254;97934;-63
2023/09/02 05:18:50;;;;;;;14.40;6.10;;;;;;;17.11;76.29;101618.90;107265;1257;111904;-64
2023/09/02 05:21:19;;;;;;;17.80;6.60;;;;;;;17.16;76.17;101618.77;107393;1254;110140;-64
2023/09/02 05:23:47;;;;;;;20.00;6.50;;;;;;;17.22;76.21;101619.98;107350;1257;108370;-63
2023/09/02 05:26:16;;;;;;;21.20;6.60;;;;;;;17.29;76.30;101612.88;107340;1257;97867;-64
2023/09/02 05:28:44;;;;;;;18.80;7.00;;;;;;;17.39;76.25;101609.39;107300;1258;97841;-64
2023/09/02 05:31:12;;;;;;;17.50;7.50;;;;;;;17.47;76.22;101608.30;107224;1254;111157;-66
2023/09/02 05:33:41;;;;;;;19.50;6.80;;;;;;;17.56;76.13;101603.81;107352;1257;110010;-65
2023/09/02 05:36:09;;;;;;;17.00;7.00;;;;;;;17.64;76.07;101603.89;107359;1257;107929;-65
2023/09/02 05:38:38;;;;;;;19.40;6.70;;;;;;;17.73;75.88;101606.03;107343;1256;97916;-64
2023/09/02 05:41:06;;;;;;;20.80;7.30;;;;;;;17.81;75.73;101606.08;107358;1257;98388;-65
2023/09/02 05:43:34;;;;;;;15.30;6.70;;;;;;;17.87;75.34;101608.68;107331;1255;111981;-65
2023/09/02 05:46:03;;;;;;;16.10;6.70;;;;;;;17.91;74.74;101611.32;107281;1254;109118;-65
2023/09/02 05:48:32;;;;;;;13.10;6.30;;;;;;;17.96;74.30;101609.35;107330;1254;111591;-65
2023/09/02 05:51:01;;;;;;;19.60;7.70;;;;;;;18.04;73.93;101612.15;107353;1257;97924;-65
2023/09/02 05:53:29;;;;;;;16.90;6.20;;;;;;;18.12;73.23;101612.38;107238;1257;97743;-64
2023/09/02 05:55:58;;;;;;;19.10;7.30;;;;;;;18.20;72.87;101609.02;107354;1257;111893;-65
2023/09/02 05:58:27;;;;;;;14.90;7.10;;;;;;;18.27;72.46;101617.02;107346;1257;109162;-64
2023/09/02 06:00:58;;;;;;;20.60;7.90;;;;;;;18.35;72.35;101615.02;107257;1256;108218;-65
2023/09/02 06:03:27;;;;;;;20.60;7.40;;;;;;;18.43;71.90;101617.21;107298;1256;97902;-66
2023/09/02 06:05:56;;;;;;;20.40;7.20;;;;;;;18.50;71.52;101617.58;107284;1257;97835;-66
2023/09/02 06:08:25;;;;;;;22.90;7.40;;;;;;;18.57;71.21;101616.22;107327;1257;111286;-65
2023/09/02 06:10:59;;;;;;;23.30;7.10;;;;;;;18.65;70.47;101617.77;107293;1257;109410;-66
2023/09/02 06:13:28;;;;;;;18.70;7.40;;;;;;;18.70;69.19;101613.54;107123;1257;108437;-65
2023/09/02 06:16:01;;;;;;;21.20;7.00;;;;;;;18.76;68.32;101614.73;107324;1256;98480;-66
2023/09/02 06:18:32;;;;;;;15.00;7.10;;;;;;;18.84;67.50;101611.36;107435;1257;97861;-64
2023/09/02 06:21:13;;;;;;;15.70;6.60;;;;;;;18.91;66.65;101613.30;107361;1258;111815;-60
2023/09/02 06:23:43;;;;;;;17.20;6.30;;;;;;;18.99;66.11;101615.51;107243;1257;109479;-59
2023/09/02 06:26:12;;;;;;;11.50;6.20;;;;;;;19.08;66.58;101616.48;107332;1257;108701;-60
2023/09/02 06:28:41;;;;;;;10.70;5.50;;;;;;;19.16;66.02;101614.95;107251;1257;97842;-59
2023/09/02 06:31:11;;;;;;;13.60;5.40;;;;;;;19.22;65.22;101611.84;107272;1257;97867;-60
2023/09/02 06:33:39;;;;;;;16.60;7.00;;;;;;;19.29;64.46;101614.79;107354;1259;112234;-60
2023/09/02 06:36:12;;;;;;;10.30;5.20;;;;;;;19.36;63.91;101614.64;107270;1257;109889;-61
2023/09/02 06:38:40;;;;;;;9.30;4.60;;;;;;;19.45;63.70;101619.83;107258;1256;108844;-63
2023/09/02 06:41:13;;;;;;;7.50;5.20;;;;;;;19.53;63.57;101613.30;107314;1257;98465;-61
2023/09/02 06:43:42;;;;;;;16.30;5.50;;;;;;;19.62;62.85;101614.16;107284;1258;97932;-61
2023/09/02 06:46:16;;;;;;;10.40;5.60;;;;;;;19.70;62.48;101615.20;107371;1257;110266;-61
2023/09/02 06:48:45;;;;;;;15.90;5.40;;;;;;;19.79;61.84;101616.73;107299;1257;109905;-61
2023/09/02 06:51:14;;;;;;;12.80;6.60;;;;;;;19.89;61.40;101617.13;107262;1257;108168;-60
2023/09/02 06:53:43;;;;;;;9.90;4.80;;;;;;;19.99;60.98;101614.66;107315;1257;97943;-60
2023/09/02 06:56:12;;;;;;;14.40;5.00;;;;;;;20.10;59.96;101617.95;107381;1257;97743;-61
2023/09/02 06:58:43;;;;;;;17.90;5.10;;;;;;;20.19;60.39;101617.96;107372;1257;112478;-60
2023/09/02 07:01:18;;;;;;;9.80;5.10;;;;;;;20.28;60.26;101618.19;107391;1257;108044;-60
2023/09/02 07:03:47;;;;;;;12.90;4.70;;;;;;;20.37;59.24;101617.14;107278;1259;107916;-60
2023/09/02 07:06:16;;;;;;;8.70;4.20;;;;;;;20.47;59.03;101619.64;107326;1258;97820;-60
2023/09/02 07:08:44;;;;;;;9.10;4.30;;;;;;;20.57;58.73;101619.61;107270;1257;98467;-61
2023/09/02 07:11:13;;;;;;;8.20;4.50;;;;;;;20.66;58.11;101619.65;107338;1254;110798;-61
2023/09/02 07:13:47;;;;;;;11.70;5.00;;;;;;;20.75;58.36;101617.78;107340;1257;109411;-61
2023/09/02 07:16:16;;;;;;;13.70;5.60;;;;;;;20.84;58.39;101619.66;107248;1254;106837;-60
2023/09/02 07:18:44;;;;;;;10.10;4.50;;;;;;;20.93;58.55;101621.50;107312;1257;97963;-60
2023/09/02 07:21:13;;;;;;;17.30;5.10;;;;;;;21.02;58.45;101622.27;107285;1257;97727;-60
2023/09/02 07:23:41;;;;;;;17.90;4.80;;;;;;;21.10;58.36;101627.13;107347;1255;111428;-61
2023/09/02 07:26:09;;;;;;;17.60;4.80;;;;;;;21.18;57.80;101623.66;107300;1257;109292;-59
2023/09/02 07:28:39;;;;;;;11.70;4.50;;;;;;;21.27;57.61;101625.12;107209;1259;109393;-62
2023/09/02 07:31:08;;;;;;;6.90;3.80;;;;;;;21.36;57.75;101623.45;107315;1259;98065;-60
2023/09/02 07:33:36;;;;;;;19.30;4.40;;;;;;;21.45;57.54;101619.24;107313;1257;97899;-59
2023/09/02 07:36:09;;;;;;;7.00;3.80;;;;;;;21.53;55.68;101623.03;107359;1257;112198;-60
2023/09/02 07:38:39;;;;;;;7.50;4.10;;;;;;;21.66;55.34;101625.73;107363;1257;108284;-63
2023/09/02 07:41:09;;;;;;;14.60;4.40;;;;;;;21.79;55.18;101621.55;107297;1257;108616;-60
2023/09/02 07:43:38;;;;;;;13.80;4.50;;;;;;;21.91;54.99;101618.77;107284;1257;97842;-61
2023/09/02 07:46:06;;;;;;;10.80;4.10;;;;;;;22.04;53.94;101621.05;107285;1257;97729;-60
2023/09/02 07:48:35;;;;;;;21.40;4.10;;;;;;;22.18;53.31;101619.10;107260;1257;111405;-60
2023/09/02 07:51:03;;;;;;;8.50;4.60;;;;;;;22.33;53.49;101620.02;107217;1257;108585;-61
2023/09/02 07:53:31;;;;;;;9.80;4.20;;;;;;;22.46;51.76;101621.12;107322;1258;107151;-61
2023/09/02 07:56:00;;;;;;;9.60;3.90;;;;;;;22.57;52.02;101620.82;107254;1256;97840;-61
2023/09/02 07:58:28;;;;;;;14.70;4.50;;;;;;;22.70;52.57;101622.34;107310;1256;97806;-60
2023/09/02 08:00:56;;;;;;;8.00;3.80;;;;;;;22.87;51.40;101620.46;107334;1257;111362;-61
2023/09/02 08:03:25;;;;;;;8.00;3.30;;;;;;;23.10;51.13;101621.63;107386;1256;108767;-60
2023/09/02 08:05:54;;;;;;;13.40;3.40;;;;;;;23.28;50.57;101618.92;107189;1257;108837;-61
2023/09/02 08:08:22;;;;;;;10.60;3.50;;;;;;;23.47;49.05;101617.60;107320;1257;97927;-62
2023/09/02 08:11:01;;;;;;;16.70;6.70;;;;;;;23.67;49.03;101621.39;107342;1256;97819;-61
2023/09/02 08:13:29;;;;;;;9.90;4.10;;;;;;;23.84;49.59;101619.91;107370;1255;112056;-61
2023/09/02 08:15:58;;;;;;;11.10;4.30;;;;;;;23.93;48.81;101619.05;107378;1256;109651;-61
2023/09/02 08:18:27;;;;;;;9.00;3.80;;;;;;;24.03;48.51;101616.70;107270;1259;107617;-61
2023/09/02 08:20:55;;;;;;;8.30;4.10;;;;;;;24.12;47.15;101619.52;107334;1257;97954;-60
2023/09/02 08:23:23;;;;;;;8.50;3.20;;;;;;;24.22;47.24;101613.63;107275;1257;97711;-61
2023/09/02 08:25:51;;;;;;;8.30;3.40;;;;;;;24.36;47.24;101617.31;107285;1259;111939;-60
2023/09/02 08:28:19;;;;;;;10.60;3.10;;;;;;;24.48;45.36;101618.98;107269;1257;109976;-61
2023/09/02 08:30:48;;;;;;;6.30;3.40;;;;;;;24.60;45.18;101616.92;107281;1257;108438;-60
2023/09/02 08:33:16;;;;;;;6.30;2.70;;;;;;;24.73;43.23;101619.39;107206;1254;97733;-62
2023/09/02 08:35:45;;;;;;;3.20;2.80;;;;;;;24.87;41.97;101618.68;107266;1258;97924;-61
2023/09/02 08:38:13;;;;;;;11.10;3.00;;;;;;;24.98;42.18;101617.31;107212;1257;111202;-63
2023/09/02 08:40:43;;;;;;;6.90;3.00;;;;;;;25.11;42.75;101613.84;107279;1256;109217;-62
2023/09/02 08:43:13;;;;;;;3.90;2.60;;;;;;;25.30;41.43;101608.61;107267;1259;107711;-61
2023/09/02 08:45:45;;;;;;;7.20;3.20;;;;;;;25.47;41.82;101606.70;107320;1257;97861;-61
2023/09/02 08:48:24;;;;;;;6.30;3.50;;;;;;;25.66;42.07;101609.90;107270;1257;98392;-60
2023/09/02 08:50:55;;;;;;;9.00;3.20;;;;;;;25.87;41.91;101606.23;107259;1257;112486;-61
2023/09/02 08:53:27;;;;;;;10.40;3.00;;;;;;;26.08;42.04;101603.40;107317;1257;108700;-61
2023/09/02 08:55:56;;;;;;;5.50;2.80;;;;;;;26.31;42.30;101605.75;107295;1257;108457;-61
2023/09/02 08:58:26;;;;;;;12.20;3.10;;;;;;;26.55;42.31;101603.93;107303;1256;97717;-60
2023/09/02 09:00:55;;;;;;;7.30;2.90;;;;;;;26.81;39.87;101599.35;107254;1256;97852;-59
2023/09/02 09:03:28;;;;;;;7.60;3.40;;;;;;;27.03;39.28;101601.73;107299;1259;112301;-60
2023/09/02 09:05:59;;;;;;;12.40;3.30;;;;;;;27.23;38.29;101600.22;107288;1257;110357;-61
2023/09/02 09:08:30;;;;;;;8.20;3.10;;;;;;;27.43;38.44;101600.86;107268;1257;108129;-60
2023/09/02 09:10:58;;;;;;;7.80;3.60;;;;;;;27.66;37.89;101603.77;107278;1257;97886;-60
2023/09/02 09:13:28;;;;;;;8.20;3.90;;;;;;;27.89;37.32;101600.84;107173;1256;97762;-62
2023/09/02 09:15:57;;;;;;;11.30;3.20;;;;;;;28.18;37.42;101601.39;107280;1257;111054;-61
2023/09/02 09:18:26;;;;;;;7.80;2.90;;;;;;;28.52;37.61;101599.02;107212;1258;108314;-60
2023/09/02 09:20:54;;;;;;;4.50;2.80;;;;;;;28.84;35.09;101598.88;107345;1257;108609;-62
2023/09/02 09:23:22;;;;;;;6.90;2.50;;;;;;;29.12;34.15;101601.92;107223;1259;97984;-60
2023/09/02 09:25:52;;;;;;;11.10;2.60;;;;;;;29.42;33.86;101603.58;107216;1257;98488;-60
2023/09/02 09:28:20;;;;;;;16.10;2.70;;;;;;;29.88;34.02;101591.75;107092;1257;112567;-61
2023/09/02 09:30:49;;;;;;;8.20;2.80;;;;;;;30.48;32.78;101589.00;107207;1259;109681;-61
2023/09/02 09:33:18;;;;;;;5.20;2.50;;;;;;;31.18;31.57;101587.27;107251;1258;107954;-59
2023/09/02 09:35:47;;;;;;;8.10;3.00;;;;;;;31.82;30.53;101578.48;107243;1257;97730;-61
2023/09/02 09:38:17;;;;;;;7.80;2.10;;;;;;;32.28;30.17;101573.92;107274;1257;98021;-60
2023/09/02 09:40:45;;;;;;;7.00;2.80;;;;;;;32.77;30.04;101579.77;107242;1259;112753;-60
2023/09/02 09:43:16;;;;;;;5.00;2.70;;;;;;;33.21;28.71;101575.23;107240;1257;108998;-61
2023/09/02 09:45:52;;;;;;;10.30;2.50;;;;;;;33.67;27.80;101571.68;107251;1257;107182;-61
2023/09/02 09:48:20;;;;;;;5.40;2.50;;;;;;;33.86;27.01;101570.48;107278;1259;97909;-62
2023/09/02 09:50:49;;;;;;;5.10;2.50;;;;;;;34.26;27.66;101561.92;107255;1256;97734;-61
2023/09/02 09:53:17;;;;;;;10.80;2.60;;;;;;;34.84;27.81;101563.95;107295;1258;111749;-61
2023/09/02 09:55:46;;;;;;;5.90;2.30;;;;;;;35.37;27.41;101560.11;106728;1255;600888;-61
2023/09/02 09:58:22;;;;;;;3.90;2.40;;;;;;;35.92;26.83;101557.67;107182;1259;108148;-61
2023/09/02 10:00:52;;;;;;;10.80;2.40;;;;;;;36.44;25.84;101551.11;107335;1257;97824;-59
2023/09/02 10:03:30;;;;;;;3.40;2.00;;;;;;;36.87;25.81;101552.46;107385;1259;97730;-61
2023/09/02 10:06:00;;;;;;;3.50;2.30;;;;;;;37.32;24.31;101548.33;107325;1257;111870;-61
2023/09/02 10:08:47;;;;;;;5.40;2.70;;;;;;;37.61;23.58;101547.73;107378;1259;109934;-61
2023/09/02 10:11:21;;;;;;;5.70;2.30;;;;;;;37.52;23.41;101545.80;107323;1258;107921;-61
2023/09/02 10:13:52;;;;;;;2.60;1.80;;;;;;;37.91;23.44;101547.42;107246;1258;97989;-60
2023/09/02 10:16:22;;;;;;;4.40;2.20;;;;;;;38.31;22.86;101544.32;107304;1258;97833;-61
2023/09/02 10:18:51;;;;;;;8.30;2.40;;;;;;;38.68;23.23;101542.43;107329;1257;110941;-60
2023/09/02 10:21:21;;;;;;;3.60;2.10;;;;;;;39.23;22.72;101541.55;107346;1260;109398;-60
2023/09/02 10:23:55;;;;;;;4.10;2.00;;;;;;;39.55;22.43;101533.23;107352;1259;107827;-61
2023/09/02 10:26:42;;;;;;;5.00;2.60;;;;;;;39.69;21.97;101531.80;107312;1257;97922;-61
2023/09/02 10:29:13;;;;;;;6.90;2.60;;;;;;;40.04;21.84;101534.89;107296;1257;97824;-61
2023/09/02 10:31:48;;;;;;;3.30;2.20;;;;;;;40.45;20.80;101534.56;107293;1258;112421;-62
2023/09/02 10:34:41;;;;;;;7.00;2.70;;;;;;;40.64;20.53;101534.14;107271;1257;108703;-61
2023/09/02 10:37:18;;;;;;;10.20;1.80;;;;;;;40.78;20.62;101535.45;107277;1257;107844;-62
2023/09/02 10:40:04;;;;;;;3.50;2.50;;;;;;;40.98;20.43;101529.80;107355;1259;97916;-60
2023/09/02 10:42:34;;;;;;;4.70;2.30;;;;;;;41.10;20.43;101529.29;107410;1254;98365;-61
2023/09/02 10:45:04;;;;;;;3.80;1.90;;;;;;;41.16;19.96;101524.89;107352;1258;110826;-60
2023/09/02 10:47:32;;;;;;;14.60;3.40;;;;;;;41.05;18.95;101527.71;107397;1257;109573;-62
2023/09/02 10:50:03;;;;;;;3.50;2.20;;;;;;;40.81;19.50;101524.30;107333;1254;110820;-61
2023/09/02 10:52:31;;;;;;;6.00;2.90;;;;;;;40.94;19.64;101517.52;107440;1257;97813;-63
2023/09/02 10:55:04;;;;;;;5.20;2.00;;;;;;;41.25;20.07;101517.04;107334;1257;98370;-61
2023/09/02 10:57:46;;;;;;;5.50;2.20;;;;;;;41.66;19.98;101518.11;107367;1259;112260;-63
2023/09/02 11:00:20;;;;;;;3.00;1.90;;;;;;;42.07;19.49;101515.59;107279;1258;111223;-61
2023/09/02 11:02:53;;;;;;;5.20;1.90;;;;;;;42.24;18.40;101512.92;107163;1259;109091;-61
2023/09/02 11:05:23;;;;;;;5.30;1.50;;;;;;;42.26;17.71;101505.18;107205;1259;97835;-62
2023/09/02 11:07:53;;;;;;;3.80;1.60;;;;;;;42.31;18.39;101504.86;107254;1258;97828;-61
2023/09/02 11:10:22;;;;;;;3.00;1.70;;;;;;;42.53;17.72;101503.63;107296;1257;110885;-62
2023/09/02 11:12:59;;;;;;;3.40;1.40;;;;;;;41.47;18.10;101505.50;107287;1258;109009;-61
2023/09/02 11:15:28;;;;;;;4.30;1.50;;;;;;;40.31;18.69;101495.26;107281;1259;108434;-61
2023/09/02 11:17:56;;;;;;;3.60;1.30;;;;;;;39.84;19.41;101490.61;107271;1257;97791;-61
2023/09/02 11:20:25;;;;;;;3.10;1.60;;;;;;;40.46;19.59;101489.04;107336;1254;97888;-61